Etusivu
METAR-TAF:

METAR-TAF

Lentoasemat :

Curitiba, Paraná, Brasilia

Leveyspiiri: 25-26S, Pituuspiiri: 049-16W, korkeus merenpinnasta: 924 m

Tämänhetkinen sää

Tämä raportti tehtiin 52 minuuttia sitten, kello 11.00 UTC
Tuuli 3 kn pohjoisesta
Lämpötila 14°C
Kosteus 82%
Ilmanpaine 1019 hPa
Näkyvyys 10 km tai enemmän
ei pilviä alle 1500 m:ssä eikä cumulonimbus-pilviä

METAR: SBBI 221100Z 35003KT CAVOK 14/11 Q1019

Aika: 08:52 (11:52 UTC)

Sääennuste

Tämä raportti tehtiin 8 tuntia ja 52 minuuttia sitten, kello 03.00 UTC
Ennuste voimassa 22. päivästä klo 06 UTC - 22. päivään klo 18 UTC
Tuuli 6 kn pohjoisen/luoteesta
Näkyvyys: 4000 m
Hajonneita pilviä 800 ft:n korkeudessa
utua
Tulossa
22. päivästä klo 10 UTC - 22. päivään klo 13 UTC
Tuuli 9 kn pohjoisen/luoteesta
Näkyvyys 10 km tai enemmän
ei pilviä alle 1500 m:ssä eikä cumulonimbus-pilviä

TAF: SBBI 220300Z 2206/2218 33006KT 4000 BR BKN008 TN12/2208Z TX24/2217Z BECMG 2210/2213 34009KT CAVOK RMK PEC

Säähavainnot ja -ennusteet yli 4000 lentoasemalta (METAR- ja TAF-raportit).

Käytössä olevat sääasemat on merkitty karttaan keltaisilla ja punaisilla pisteillä.

Aseta hiiri pisteen päälle nähdäksesi sääaseman nimen.

Klikkaa sitten nähdäksesi säähavainnot ja -ennusteet.

Kartan vaihtaminen: klikkaa mustalla rastilla varustettuja vihreitä pisteitä, niin voit zoomata sisään; viivalla varustettua vihreää pistettä, niin voit zoomata ulos tai vihreitä nuolia, niin pääset viereisille kartoille.


METAR-TAF: